sensor_id;sensor_type;location;lat;lon;timestamp;temperature;humidity
19363;DHT22;9817;50.80926400;5.16316200;2023-07-29T00:01:31;21.40;99.90
19363;DHT22;9817;50.80926400;5.16316200;2023-07-29T00:03:56;21.40;99.90
19363;DHT22;9817;50.80926400;5.16316200;2023-07-29T00:06:23;21.50;99.90
19363;DHT22;9817;50.80926400;5.16316200;2023-07-29T00:08:49;21.40;99.90
19363;DHT22;9817;50.80926400;5.16316200;2023-07-29T00:11:14;21.50;99.90
19363;DHT22;9817;50.80926400;5.16316200;2023-07-29T00:13:40;21.40;99.90
19363;DHT22;9817;50.80926400;5.16316200;2023-07-29T00:16:06;21.40;99.90
19363;DHT22;9817;50.80926400;5.16316200;2023-07-29T00:18:31;21.40;99.90
19363;DHT22;9817;50.80926400;5.16316200;2023-07-29T00:20:58;21.40;99.90
19363;DHT22;9817;50.80926400;5.16316200;2023-07-29T00:23:23;21.40;99.90
19363;DHT22;9817;50.80926400;5.16316200;2023-07-29T00:25:49;21.40;99.90
19363;DHT22;9817;50.80926400;5.16316200;2023-07-29T00:28:15;21.50;99.90
19363;DHT22;9817;50.80926400;5.16316200;2023-07-29T00:30:40;21.60;99.90
19363;DHT22;9817;50.80926400;5.16316200;2023-07-29T00:33:06;21.50;99.90
19363;DHT22;9817;50.80926400;5.16316200;2023-07-29T00:35:32;21.40;99.90
19363;DHT22;9817;50.80926400;5.16316200;2023-07-29T00:37:57;21.40;99.90
19363;DHT22;9817;50.80926400;5.16316200;2023-07-29T00:40:23;21.40;99.90
19363;DHT22;9817;50.80926400;5.16316200;2023-07-29T00:42:49;21.40;99.90
19363;DHT22;9817;50.80926400;5.16316200;2023-07-29T00:45:16;21.40;99.90
19363;DHT22;9817;50.80926400;5.16316200;2023-07-29T00:47:42;21.40;99.90
19363;DHT22;9817;50.80926400;5.16316200;2023-07-29T00:50:09;21.40;99.90
19363;DHT22;9817;50.80926400;5.16316200;2023-07-29T00:52:36;21.40;99.90
19363;DHT22;9817;50.80926400;5.16316200;2023-07-29T00:55:03;21.40;99.90
19363;DHT22;9817;50.80926400;5.16316200;2023-07-29T00:57:30;21.30;99.90
19363;DHT22;9817;50.80926400;5.16316200;2023-07-29T00:59:56;21.20;99.90
19363;DHT22;9817;50.80926400;5.16316200;2023-07-29T01:02:22;21.10;99.90
19363;DHT22;9817;50.80926400;5.16316200;2023-07-29T01:04:56;21.10;99.90
19363;DHT22;9817;50.80926400;5.16316200;2023-07-29T01:13:10;21.10;99.90
19363;DHT22;9817;50.80926400;5.16316200;2023-07-29T01:15:45;21.20;99.90
19363;DHT22;9817;50.80926400;5.16316200;2023-07-29T01:18:29;21.20;99.90
19363;DHT22;9817;50.80926400;5.16316200;2023-07-29T01:21:00;21.20;99.90
19363;DHT22;9817;50.80926400;5.16316200;2023-07-29T01:23:31;21.20;99.90
19363;DHT22;9817;50.80926400;5.16316200;2023-07-29T01:25:57;21.20;99.90
19363;DHT22;9817;50.80926400;5.16316200;2023-07-29T01:28:24;21.20;99.90
19363;DHT22;9817;50.80926400;5.16316200;2023-07-29T01:30:52;21.10;99.90
19363;DHT22;9817;50.80926400;5.16316200;2023-07-29T01:33:26;21.00;99.90
19363;DHT22;9817;50.80926400;5.16316200;2023-07-29T01:35:58;20.90;99.90
19363;DHT22;9817;50.80926400;5.16316200;2023-07-29T01:38:33;20.90;99.90
19363;DHT22;9817;50.80926400;5.16316200;2023-07-29T01:41:06;20.90;99.90
19363;DHT22;9817;50.80926400;5.16316200;2023-07-29T01:43:32;20.90;99.90
19363;DHT22;9817;50.80926400;5.16316200;2023-07-29T01:46:00;20.70;99.90
19363;DHT22;9817;50.80926400;5.16316200;2023-07-29T01:48:26;20.50;99.90
19363;DHT22;9817;50.80926400;5.16316200;2023-07-29T01:50:53;20.30;99.90
19363;DHT22;9817;50.80926400;5.16316200;2023-07-29T01:53:18;20.30;99.90
19363;DHT22;9817;50.80926400;5.16316200;2023-07-29T01:55:44;20.30;99.90
19363;DHT22;9817;50.80926400;5.16316200;2023-07-29T01:58:10;20.30;99.90
19363;DHT22;9817;50.80926400;5.16316200;2023-07-29T02:00:36;20.20;99.90
19363;DHT22;9817;50.80926400;5.16316200;2023-07-29T02:03:02;20.20;99.90
19363;DHT22;9817;50.80926400;5.16316200;2023-07-29T02:05:27;20.10;99.90
19363;DHT22;9817;50.80926400;5.16316200;2023-07-29T02:07:53;20.10;99.90
19363;DHT22;9817;50.80926400;5.16316200;2023-07-29T02:10:19;20.10;99.90
19363;DHT22;9817;50.80926400;5.16316200;2023-07-29T02:12:44;20.20;99.90
19363;DHT22;9817;50.80926400;5.16316200;2023-07-29T02:15:10;20.20;99.90
19363;DHT22;9817;50.80926400;5.16316200;2023-07-29T02:17:36;20.20;99.90
19363;DHT22;9817;50.80926400;5.16316200;2023-07-29T02:20:03;20.10;99.90
19363;DHT22;9817;50.80926400;5.16316200;2023-07-29T02:22:29;20.10;99.90
19363;DHT22;9817;50.80926400;5.16316200;2023-07-29T02:24:55;20.10;99.90
19363;DHT22;9817;50.80926400;5.16316200;2023-07-29T02:27:21;20.10;99.90
19363;DHT22;9817;50.80926400;5.16316200;2023-07-29T02:29:46;20.10;99.90
19363;DHT22;9817;50.80926400;5.16316200;2023-07-29T02:32:12;20.10;99.90
19363;DHT22;9817;50.80926400;5.16316200;2023-07-29T02:34:38;20.10;99.90
19363;DHT22;9817;50.80926400;5.16316200;2023-07-29T02:37:03;20.20;99.90
19363;DHT22;9817;50.80926400;5.16316200;2023-07-29T02:39:29;20.10;99.90
19363;DHT22;9817;50.80926400;5.16316200;2023-07-29T02:41:55;20.00;99.90
19363;DHT22;9817;50.80926400;5.16316200;2023-07-29T02:44:21;20.00;99.90
19363;DHT22;9817;50.80926400;5.16316200;2023-07-29T02:46:47;20.10;99.90
19363;DHT22;9817;50.80926400;5.16316200;2023-07-29T02:49:12;20.00;99.90
19363;DHT22;9817;50.80926400;5.16316200;2023-07-29T02:51:38;20.00;99.90
19363;DHT22;9817;50.80926400;5.16316200;2023-07-29T02:54:04;20.00;99.90
19363;DHT22;9817;50.80926400;5.16316200;2023-07-29T02:56:29;20.00;99.90
19363;DHT22;9817;50.80926400;5.16316200;2023-07-29T02:58:56;19.90;99.90
19363;DHT22;9817;50.80926400;5.16316200;2023-07-29T03:01:23;19.90;99.90
19363;DHT22;9817;50.80926400;5.16316200;2023-07-29T03:03:50;20.00;99.90
19363;DHT22;9817;50.80926400;5.16316200;2023-07-29T03:06:16;19.90;99.90
19363;DHT22;9817;50.80926400;5.16316200;2023-07-29T03:08:41;19.90;99.90
19363;DHT22;9817;50.80926400;5.16316200;2023-07-29T03:11:09;19.80;99.90
19363;DHT22;9817;50.80926400;5.16316200;2023-07-29T03:13:36;19.70;99.90
19363;DHT22;9817;50.80926400;5.16316200;2023-07-29T03:16:13;19.60;99.90
19363;DHT22;9817;50.80926400;5.16316200;2023-07-29T03:18:42;19.60;99.90
19363;DHT22;9817;50.80926400;5.16316200;2023-07-29T03:21:09;19.70;99.90
19363;DHT22;9817;50.80926400;5.16316200;2023-07-29T03:23:35;19.60;99.90
19363;DHT22;9817;50.80926400;5.16316200;2023-07-29T03:26:03;19.60;99.90
19363;DHT22;9817;50.80926400;5.16316200;2023-07-29T03:28:36;19.60;99.90
19363;DHT22;9817;50.80926400;5.16316200;2023-07-29T03:31:02;19.60;99.90
19363;DHT22;9817;50.80926400;5.16316200;2023-07-29T03:33:28;19.60;99.90
19363;DHT22;9817;50.80926400;5.16316200;2023-07-29T03:35:53;19.60;99.90
19363;DHT22;9817;50.80926400;5.16316200;2023-07-29T03:38:19;19.50;99.90
19363;DHT22;9817;50.80926400;5.16316200;2023-07-29T03:40:45;19.40;99.90
19363;DHT22;9817;50.80926400;5.16316200;2023-07-29T03:43:10;19.40;99.90
19363;DHT22;9817;50.80926400;5.16316200;2023-07-29T03:45:36;19.50;99.90
19363;DHT22;9817;50.80926400;5.16316200;2023-07-29T03:48:03;19.50;99.90
19363;DHT22;9817;50.80926400;5.16316200;2023-07-29T03:50:29;19.50;99.90
19363;DHT22;9817;50.80926400;5.16316200;2023-07-29T03:52:56;19.60;99.90
19363;DHT22;9817;50.80926400;5.16316200;2023-07-29T03:55:22;19.50;99.90
19363;DHT22;9817;50.80926400;5.16316200;2023-07-29T03:57:47;19.50;99.90
19363;DHT22;9817;50.80926400;5.16316200;2023-07-29T04:00:13;19.40;99.90
19363;DHT22;9817;50.80926400;5.16316200;2023-07-29T04:02:41;19.40;99.90
19363;DHT22;9817;50.80926400;5.16316200;2023-07-29T04:05:07;19.40;99.90
19363;DHT22;9817;50.80926400;5.16316200;2023-07-29T04:07:37;19.40;99.90
19363;DHT22;9817;50.80926400;5.16316200;2023-07-29T04:10:03;19.40;99.90
19363;DHT22;9817;50.80926400;5.16316200;2023-07-29T04:12:30;19.50;99.90
19363;DHT22;9817;50.80926400;5.16316200;2023-07-29T04:14:55;19.40;99.90
19363;DHT22;9817;50.80926400;5.16316200;2023-07-29T04:17:21;19.40;99.90
19363;DHT22;9817;50.80926400;5.16316200;2023-07-29T04:19:47;19.40;99.90
19363;DHT22;9817;50.80926400;5.16316200;2023-07-29T04:22:12;19.40;99.90
19363;DHT22;9817;50.80926400;5.16316200;2023-07-29T04:24:38;19.40;99.90
19363;DHT22;9817;50.80926400;5.16316200;2023-07-29T04:27:04;19.40;99.90
19363;DHT22;9817;50.80926400;5.16316200;2023-07-29T04:29:29;19.50;99.90
19363;DHT22;9817;50.80926400;5.16316200;2023-07-29T04:31:55;19.40;99.90
19363;DHT22;9817;50.80926400;5.16316200;2023-07-29T04:34:21;19.40;99.90
19363;DHT22;9817;50.80926400;5.16316200;2023-07-29T04:36:47;19.30;99.90
19363;DHT22;9817;50.80926400;5.16316200;2023-07-29T04:39:13;19.40;99.90
19363;DHT22;9817;50.80926400;5.16316200;2023-07-29T04:41:38;19.40;99.90
19363;DHT22;9817;50.80926400;5.16316200;2023-07-29T04:44:04;19.50;99.90
19363;DHT22;9817;50.80926400;5.16316200;2023-07-29T04:46:30;19.40;99.90
19363;DHT22;9817;50.80926400;5.16316200;2023-07-29T04:48:56;19.50;99.90
19363;DHT22;9817;50.80926400;5.16316200;2023-07-29T04:51:21;19.40;99.90
19363;DHT22;9817;50.80926400;5.16316200;2023-07-29T04:53:47;19.40;99.90
19363;DHT22;9817;50.80926400;5.16316200;2023-07-29T04:56:13;19.30;99.90
19363;DHT22;9817;50.80926400;5.16316200;2023-07-29T04:58:39;19.30;99.90
19363;DHT22;9817;50.80926400;5.16316200;2023-07-29T05:01:04;19.20;99.90
19363;DHT22;9817;50.80926400;5.16316200;2023-07-29T05:03:30;19.00;99.90
19363;DHT22;9817;50.80926400;5.16316200;2023-07-29T05:05:56;19.00;99.90
19363;DHT22;9817;50.80926400;5.16316200;2023-07-29T05:08:22;19.10;99.90
19363;DHT22;9817;50.80926400;5.16316200;2023-07-29T05:10:52;19.20;99.90
19363;DHT22;9817;50.80926400;5.16316200;2023-07-29T05:13:18;19.30;99.90
19363;DHT22;9817;50.80926400;5.16316200;2023-07-29T05:15:44;19.40;99.90
19363;DHT22;9817;50.80926400;5.16316200;2023-07-29T05:18:10;19.50;99.90
19363;DHT22;9817;50.80926400;5.16316200;2023-07-29T05:20:36;19.60;99.90
19363;DHT22;9817;50.80926400;5.16316200;2023-07-29T05:23:02;19.70;99.90
19363;DHT22;9817;50.80926400;5.16316200;2023-07-29T05:25:27;19.70;99.90
19363;DHT22;9817;50.80926400;5.16316200;2023-07-29T05:27:53;19.80;99.90
19363;DHT22;9817;50.80926400;5.16316200;2023-07-29T05:30:19;19.90;99.90
19363;DHT22;9817;50.80926400;5.16316200;2023-07-29T05:32:44;19.90;99.90
19363;DHT22;9817;50.80926400;5.16316200;2023-07-29T05:35:10;19.80;99.90
19363;DHT22;9817;50.80926400;5.16316200;2023-07-29T05:37:39;19.70;99.90
19363;DHT22;9817;50.80926400;5.16316200;2023-07-29T05:40:08;19.80;99.90
19363;DHT22;9817;50.80926400;5.16316200;2023-07-29T05:42:36;19.70;99.90
19363;DHT22;9817;50.80926400;5.16316200;2023-07-29T05:45:02;19.80;99.90
19363;DHT22;9817;50.80926400;5.16316200;2023-07-29T05:47:28;19.80;99.90
19363;DHT22;9817;50.80926400;5.16316200;2023-07-29T05:49:53;19.90;99.90
19363;DHT22;9817;50.80926400;5.16316200;2023-07-29T05:52:19;20.10;99.90
19363;DHT22;9817;50.80926400;5.16316200;2023-07-29T05:54:45;20.30;99.90
19363;DHT22;9817;50.80926400;5.16316200;2023-07-29T05:57:12;20.40;99.90
19363;DHT22;9817;50.80926400;5.16316200;2023-07-29T05:59:37;20.30;99.90
19363;DHT22;9817;50.80926400;5.16316200;2023-07-29T06:02:03;20.30;99.90
19363;DHT22;9817;50.80926400;5.16316200;2023-07-29T06:04:29;20.20;99.90
19363;DHT22;9817;50.80926400;5.16316200;2023-07-29T06:06:55;20.30;99.90
19363;DHT22;9817;50.80926400;5.16316200;2023-07-29T06:09:21;20.50;99.90
19363;DHT22;9817;50.80926400;5.16316200;2023-07-29T06:11:47;20.50;99.90
19363;DHT22;9817;50.80926400;5.16316200;2023-07-29T06:14:13;20.70;99.90
19363;DHT22;9817;50.80926400;5.16316200;2023-07-29T06:16:38;20.90;99.90
19363;DHT22;9817;50.80926400;5.16316200;2023-07-29T06:19:04;20.90;99.90
19363;DHT22;9817;50.80926400;5.16316200;2023-07-29T06:21:30;20.90;99.90
19363;DHT22;9817;50.80926400;5.16316200;2023-07-29T06:23:56;21.00;99.90
19363;DHT22;9817;50.80926400;5.16316200;2023-07-29T06:26:21;21.10;99.90
19363;DHT22;9817;50.80926400;5.16316200;2023-07-29T06:28:47;21.20;99.90
19363;DHT22;9817;50.80926400;5.16316200;2023-07-29T06:31:13;21.30;99.90
19363;DHT22;9817;50.80926400;5.16316200;2023-07-29T06:33:38;21.30;99.90
19363;DHT22;9817;50.80926400;5.16316200;2023-07-29T06:36:04;21.40;99.90
19363;DHT22;9817;50.80926400;5.16316200;2023-07-29T06:38:30;21.50;99.90
19363;DHT22;9817;50.80926400;5.16316200;2023-07-29T06:40:55;21.50;99.90
19363;DHT22;9817;50.80926400;5.16316200;2023-07-29T06:43:21;21.50;99.90
19363;DHT22;9817;50.80926400;5.16316200;2023-07-29T06:45:47;21.50;99.90
19363;DHT22;9817;50.80926400;5.16316200;2023-07-29T06:48:12;21.60;99.90
19363;DHT22;9817;50.80926400;5.16316200;2023-07-29T06:50:38;21.90;99.90
19363;DHT22;9817;50.80926400;5.16316200;2023-07-29T06:53:04;21.90;99.90
19363;DHT22;9817;50.80926400;5.16316200;2023-07-29T06:55:29;21.80;99.90
19363;DHT22;9817;50.80926400;5.16316200;2023-07-29T06:57:55;21.90;99.90
19363;DHT22;9817;50.80926400;5.16316200;2023-07-29T07:00:21;22.00;99.90
19363;DHT22;9817;50.80926400;5.16316200;2023-07-29T07:02:46;21.70;99.90
19363;DHT22;9817;50.80926400;5.16316200;2023-07-29T07:05:12;21.60;99.90
19363;DHT22;9817;50.80926400;5.16316200;2023-07-29T07:07:37;21.60;99.90
19363;DHT22;9817;50.80926400;5.16316200;2023-07-29T07:10:03;21.80;99.90
19363;DHT22;9817;50.80926400;5.16316200;2023-07-29T07:12:29;22.10;99.90
19363;DHT22;9817;50.80926400;5.16316200;2023-07-29T07:14:55;22.30;99.90
19363;DHT22;9817;50.80926400;5.16316200;2023-07-29T07:17:20;22.30;99.90
19363;DHT22;9817;50.80926400;5.16316200;2023-07-29T07:19:46;22.30;99.90
19363;DHT22;9817;50.80926400;5.16316200;2023-07-29T07:22:12;22.20;99.90
19363;DHT22;9817;50.80926400;5.16316200;2023-07-29T07:24:37;22.10;99.90
19363;DHT22;9817;50.80926400;5.16316200;2023-07-29T07:27:03;22.20;99.90
19363;DHT22;9817;50.80926400;5.16316200;2023-07-29T07:29:29;22.20;99.90
19363;DHT22;9817;50.80926400;5.16316200;2023-07-29T07:31:56;22.30;99.90
19363;DHT22;9817;50.80926400;5.16316200;2023-07-29T07:34:22;22.50;99.90
19363;DHT22;9817;50.80926400;5.16316200;2023-07-29T07:36:48;22.40;99.90
19363;DHT22;9817;50.80926400;5.16316200;2023-07-29T07:39:14;22.30;99.90
19363;DHT22;9817;50.80926400;5.16316200;2023-07-29T07:41:40;22.20;99.90
19363;DHT22;9817;50.80926400;5.16316200;2023-07-29T07:44:06;22.60;99.90
19363;DHT22;9817;50.80926400;5.16316200;2023-07-29T07:46:32;23.00;99.90
19363;DHT22;9817;50.80926400;5.16316200;2023-07-29T07:48:57;23.20;99.90
19363;DHT22;9817;50.80926400;5.16316200;2023-07-29T07:51:23;23.20;99.90
19363;DHT22;9817;50.80926400;5.16316200;2023-07-29T07:53:48;23.60;99.90
19363;DHT22;9817;50.80926400;5.16316200;2023-07-29T07:56:14;23.60;99.90
19363;DHT22;9817;50.80926400;5.16316200;2023-07-29T07:58:40;23.60;99.90
19363;DHT22;9817;50.80926400;5.16316200;2023-07-29T08:01:07;23.80;99.90
19363;DHT22;9817;50.80926400;5.16316200;2023-07-29T08:03:33;23.70;99.90
19363;DHT22;9817;50.80926400;5.16316200;2023-07-29T08:05:59;23.70;99.90
19363;DHT22;9817;50.80926400;5.16316200;2023-07-29T08:08:28;23.80;99.90
19363;DHT22;9817;50.80926400;5.16316200;2023-07-29T08:10:54;24.00;99.90
19363;DHT22;9817;50.80926400;5.16316200;2023-07-29T08:13:22;24.20;99.90
19363;DHT22;9817;50.80926400;5.16316200;2023-07-29T08:15:49;24.20;99.90
19363;DHT22;9817;50.80926400;5.16316200;2023-07-29T08:18:15;24.00;99.90
19363;DHT22;9817;50.80926400;5.16316200;2023-07-29T08:20:41;23.70;99.90
19363;DHT22;9817;50.80926400;5.16316200;2023-07-29T08:23:07;23.50;99.90
19363;DHT22;9817;50.80926400;5.16316200;2023-07-29T08:25:33;23.80;99.90
19363;DHT22;9817;50.80926400;5.16316200;2023-07-29T08:27:58;24.20;99.90
19363;DHT22;9817;50.80926400;5.16316200;2023-07-29T08:30:24;24.70;99.90
19363;DHT22;9817;50.80926400;5.16316200;2023-07-29T08:32:49;25.10;99.90
19363;DHT22;9817;50.80926400;5.16316200;2023-07-29T08:35:15;25.20;99.90
19363;DHT22;9817;50.80926400;5.16316200;2023-07-29T08:37:41;25.90;99.90
19363;DHT22;9817;50.80926400;5.16316200;2023-07-29T08:40:07;26.10;99.90
19363;DHT22;9817;50.80926400;5.16316200;2023-07-29T08:42:33;26.30;99.90
19363;DHT22;9817;50.80926400;5.16316200;2023-07-29T08:45:07;26.30;99.90
19363;DHT22;9817;50.80926400;5.16316200;2023-07-29T08:47:33;26.00;99.90
19363;DHT22;9817;50.80926400;5.16316200;2023-07-29T08:50:01;26.40;99.90
19363;DHT22;9817;50.80926400;5.16316200;2023-07-29T08:52:29;27.60;99.90
19363;DHT22;9817;50.80926400;5.16316200;2023-07-29T08:54:55;28.00;99.90
19363;DHT22;9817;50.80926400;5.16316200;2023-07-29T08:57:22;28.30;99.90
19363;DHT22;9817;50.80926400;5.16316200;2023-07-29T08:59:48;29.10;99.90
19363;DHT22;9817;50.80926400;5.16316200;2023-07-29T09:02:14;29.20;99.90
19363;DHT22;9817;50.80926400;5.16316200;2023-07-29T09:04:40;28.90;99.90
19363;DHT22;9817;50.80926400;5.16316200;2023-07-29T09:07:05;28.20;99.90
19363;DHT22;9817;50.80926400;5.16316200;2023-07-29T09:09:32;27.60;99.90
19363;DHT22;9817;50.80926400;5.16316200;2023-07-29T09:11:58;26.80;99.90
19363;DHT22;9817;50.80926400;5.16316200;2023-07-29T09:14:24;26.60;99.90
19363;DHT22;9817;50.80926400;5.16316200;2023-07-29T09:16:50;26.20;99.90
19363;DHT22;9817;50.80926400;5.16316200;2023-07-29T09:19:16;26.50;99.90
19363;DHT22;9817;50.80926400;5.16316200;2023-07-29T09:21:42;26.90;99.90
19363;DHT22;9817;50.80926400;5.16316200;2023-07-29T09:24:08;27.90;99.90
19363;DHT22;9817;50.80926400;5.16316200;2023-07-29T09:26:34;29.10;99.90
19363;DHT22;9817;50.80926400;5.16316200;2023-07-29T09:29:00;29.80;99.90
19363;DHT22;9817;50.80926400;5.16316200;2023-07-29T09:31:27;29.90;99.90
19363;DHT22;9817;50.80926400;5.16316200;2023-07-29T09:34:03;29.20;99.90
19363;DHT22;9817;50.80926400;5.16316200;2023-07-29T09:36:31;28.10;99.90
19363;DHT22;9817;50.80926400;5.16316200;2023-07-29T09:38:57;27.30;99.90
19363;DHT22;9817;50.80926400;5.16316200;2023-07-29T09:41:24;27.20;99.90
19363;DHT22;9817;50.80926400;5.16316200;2023-07-29T09:43:56;28.50;99.90
19363;DHT22;9817;50.80926400;5.16316200;2023-07-29T09:46:24;30.30;99.90
19363;DHT22;9817;50.80926400;5.16316200;2023-07-29T09:48:53;31.60;99.90
19363;DHT22;9817;50.80926400;5.16316200;2023-07-29T09:51:22;32.80;99.90
19363;DHT22;9817;50.80926400;5.16316200;2023-07-29T09:53:50;34.30;99.90
19363;DHT22;9817;50.80926400;5.16316200;2023-07-29T09:56:16;34.60;99.90
19363;DHT22;9817;50.80926400;5.16316200;2023-07-29T09:58:45;34.60;99.30
19363;DHT22;9817;50.80926400;5.16316200;2023-07-29T10:01:11;33.50;99.80
19363;DHT22;9817;50.80926400;5.16316200;2023-07-29T10:03:37;32.10;99.90
19363;DHT22;9817;50.80926400;5.16316200;2023-07-29T10:06:06;31.30;99.90
19363;DHT22;9817;50.80926400;5.16316200;2023-07-29T10:08:33;30.60;99.90
19363;DHT22;9817;50.80926400;5.16316200;2023-07-29T10:11:08;30.90;99.90
19363;DHT22;9817;50.80926400;5.16316200;2023-07-29T10:13:35;30.80;99.90
19363;DHT22;9817;50.80926400;5.16316200;2023-07-29T10:16:01;31.30;99.90
19363;DHT22;9817;50.80926400;5.16316200;2023-07-29T10:18:31;31.30;99.90
19363;DHT22;9817;50.80926400;5.16316200;2023-07-29T10:20:58;31.10;99.90
19363;DHT22;9817;50.80926400;5.16316200;2023-07-29T10:23:26;30.30;99.90
19363;DHT22;9817;50.80926400;5.16316200;2023-07-29T10:26:05;29.80;99.90
19363;DHT22;9817;50.80926400;5.16316200;2023-07-29T10:28:32;29.50;99.90
19363;DHT22;9817;50.80926400;5.16316200;2023-07-29T10:30:58;29.20;99.90
19363;DHT22;9817;50.80926400;5.16316200;2023-07-29T10:33:25;29.50;99.90
19363;DHT22;9817;50.80926400;5.16316200;2023-07-29T10:35:51;29.40;99.90
19363;DHT22;9817;50.80926400;5.16316200;2023-07-29T10:38:19;28.80;99.90
19363;DHT22;9817;50.80926400;5.16316200;2023-07-29T10:40:53;28.30;99.90
19363;DHT22;9817;50.80926400;5.16316200;2023-07-29T10:45:51;27.70;99.90
19363;DHT22;9817;50.80926400;5.16316200;2023-07-29T10:53:56;28.30;99.90
19363;DHT22;9817;50.80926400;5.16316200;2023-07-29T10:56:33;28.00;99.90
19363;DHT22;9817;50.80926400;5.16316200;2023-07-29T10:59:31;27.50;99.90
19363;DHT22;9817;50.80926400;5.16316200;2023-07-29T11:01:53;27.10;99.90
19363;DHT22;9817;50.80926400;5.16316200;2023-07-29T11:12:39;25.30;99.90
19363;DHT22;9817;50.80926400;5.16316200;2023-07-29T11:17:41;25.30;99.90
19363;DHT22;9817;50.80926400;5.16316200;2023-07-29T11:20:07;25.50;99.90
19363;DHT22;9817;50.80926400;5.16316200;2023-07-29T11:22:33;25.50;99.90
19363;DHT22;9817;50.80926400;5.16316200;2023-07-29T11:24:59;25.20;99.90
19363;DHT22;9817;50.80926400;5.16316200;2023-07-29T11:27:25;24.90;99.90
19363;DHT22;9817;50.80926400;5.16316200;2023-07-29T11:30:14;24.20;99.90
19363;DHT22;9817;50.80926400;5.16316200;2023-07-29T11:32:41;24.00;99.90
19363;DHT22;9817;50.80926400;5.16316200;2023-07-29T11:35:09;23.70;99.90
19363;DHT22;9817;50.80926400;5.16316200;2023-07-29T11:37:39;23.50;99.90
19363;DHT22;9817;50.80926400;5.16316200;2023-07-29T11:40:05;23.10;99.90
19363;DHT22;9817;50.80926400;5.16316200;2023-07-29T11:42:36;22.60;99.90
19363;DHT22;9817;50.80926400;5.16316200;2023-07-29T11:45:02;22.50;99.90
19363;DHT22;9817;50.80926400;5.16316200;2023-07-29T11:47:29;22.60;99.90
19363;DHT22;9817;50.80926400;5.16316200;2023-07-29T11:49:58;23.10;99.90
19363;DHT22;9817;50.80926400;5.16316200;2023-07-29T11:52:26;23.70;99.90
19363;DHT22;9817;50.80926400;5.16316200;2023-07-29T11:54:52;24.20;99.90
19363;DHT22;9817;50.80926400;5.16316200;2023-07-29T11:57:19;24.40;99.90
19363;DHT22;9817;50.80926400;5.16316200;2023-07-29T11:59:45;24.60;99.90
19363;DHT22;9817;50.80926400;5.16316200;2023-07-29T12:02:13;24.80;99.90
19363;DHT22;9817;50.80926400;5.16316200;2023-07-29T12:04:41;24.70;99.90
19363;DHT22;9817;50.80926400;5.16316200;2023-07-29T12:07:08;24.70;99.90
19363;DHT22;9817;50.80926400;5.16316200;2023-07-29T12:09:34;24.50;99.90
19363;DHT22;9817;50.80926400;5.16316200;2023-07-29T12:12:04;24.00;99.90
19363;DHT22;9817;50.80926400;5.16316200;2023-07-29T12:14:30;23.70;99.90
19363;DHT22;9817;50.80926400;5.16316200;2023-07-29T12:16:56;23.40;99.90
19363;DHT22;9817;50.80926400;5.16316200;2023-07-29T12:19:30;23.20;99.90
19363;DHT22;9817;50.80926400;5.16316200;2023-07-29T12:21:56;23.20;99.90
19363;DHT22;9817;50.80926400;5.16316200;2023-07-29T12:24:22;23.50;99.90
19363;DHT22;9817;50.80926400;5.16316200;2023-07-29T12:26:48;23.70;99.90
19363;DHT22;9817;50.80926400;5.16316200;2023-07-29T12:29:15;24.10;99.90
19363;DHT22;9817;50.80926400;5.16316200;2023-07-29T12:31:41;24.60;99.90
19363;DHT22;9817;50.80926400;5.16316200;2023-07-29T12:34:07;24.90;99.90
19363;DHT22;9817;50.80926400;5.16316200;2023-07-29T12:36:50;25.00;99.90
19363;DHT22;9817;50.80926400;5.16316200;2023-07-29T12:39:20;25.30;99.90
19363;DHT22;9817;50.80926400;5.16316200;2023-07-29T12:41:48;25.10;99.90
19363;DHT22;9817;50.80926400;5.16316200;2023-07-29T12:44:14;25.50;99.90
19363;DHT22;9817;50.80926400;5.16316200;2023-07-29T12:46:39;25.80;99.90
19363;DHT22;9817;50.80926400;5.16316200;2023-07-29T12:49:05;25.90;99.90
19363;DHT22;9817;50.80926400;5.16316200;2023-07-29T12:51:31;25.90;99.90
19363;DHT22;9817;50.80926400;5.16316200;2023-07-29T12:53:57;26.00;99.90
19363;DHT22;9817;50.80926400;5.16316200;2023-07-29T12:56:23;25.90;99.90
19363;DHT22;9817;50.80926400;5.16316200;2023-07-29T12:58:48;25.90;99.90
19363;DHT22;9817;50.80926400;5.16316200;2023-07-29T13:01:15;26.20;99.90
19363;DHT22;9817;50.80926400;5.16316200;2023-07-29T13:03:48;26.40;99.90
19363;DHT22;9817;50.80926400;5.16316200;2023-07-29T13:06:14;26.40;99.90
19363;DHT22;9817;50.80926400;5.16316200;2023-07-29T13:08:41;26.40;99.90
19363;DHT22;9817;50.80926400;5.16316200;2023-07-29T13:11:06;26.30;99.90
19363;DHT22;9817;50.80926400;5.16316200;2023-07-29T13:13:32;25.90;99.90
19363;DHT22;9817;50.80926400;5.16316200;2023-07-29T13:15:58;25.70;99.90
19363;DHT22;9817;50.80926400;5.16316200;2023-07-29T13:18:23;25.60;99.90
19363;DHT22;9817;50.80926400;5.16316200;2023-07-29T13:20:49;25.60;99.90
19363;DHT22;9817;50.80926400;5.16316200;2023-07-29T13:23:15;25.50;99.90
19363;DHT22;9817;50.80926400;5.16316200;2023-07-29T13:25:41;25.40;99.90
19363;DHT22;9817;50.80926400;5.16316200;2023-07-29T13:28:07;25.40;99.90
19363;DHT22;9817;50.80926400;5.16316200;2023-07-29T13:30:33;25.20;99.90
19363;DHT22;9817;50.80926400;5.16316200;2023-07-29T13:32:58;25.00;99.90
19363;DHT22;9817;50.80926400;5.16316200;2023-07-29T13:35:24;25.00;99.90
19363;DHT22;9817;50.80926400;5.16316200;2023-07-29T13:37:50;24.80;99.90
19363;DHT22;9817;50.80926400;5.16316200;2023-07-29T13:40:15;24.50;99.90
19363;DHT22;9817;50.80926400;5.16316200;2023-07-29T13:42:41;24.10;99.90
19363;DHT22;9817;50.80926400;5.16316200;2023-07-29T13:45:07;24.10;99.90
19363;DHT22;9817;50.80926400;5.16316200;2023-07-29T13:47:33;24.00;99.90
19363;DHT22;9817;50.80926400;5.16316200;2023-07-29T13:49:59;24.20;99.90
19363;DHT22;9817;50.80926400;5.16316200;2023-07-29T13:52:25;24.40;99.90
19363;DHT22;9817;50.80926400;5.16316200;2023-07-29T13:54:51;24.80;99.90
19363;DHT22;9817;50.80926400;5.16316200;2023-07-29T13:57:16;25.30;99.90